Latest Weather Observations for Canberra

IDN60901

Issued at 9:11 am EST Thursday 23 September 2021 (issued every 10 minutes, with the page automatically refreshed every 10 minutes)

About weather observations | Map of Canberra area stations | Latest observations for Canberra area | Other Formats
Station Details ID: 070351 Name: CANBERRA AIRPORT Lat: -35.31 Lon: 149.20 Height: 577.05 m
Data from the previous 72 hours. | See also: Recent months at Canberra
Date/Time
EST
Temp
°C
App
Temp
°C
Dew
Point
°C
Rel
Hum
%
Delta-T
°C
Wind Press
QNH
hPa
Press
MSL
hPa
Rain since
9am
mm
Dir  Spd
km/h
Gust
km/h
Spd
kts
Gust
kts
23/09:00am 7.4 5.4 7.3 99 0.0 NNW 7 11 4 6 1022.4 1022.6 0.0
23/08:30am 7.1 5.1 7.0 99 0.0 NW 7 11 4 6 1022.6 1022.8 0.0
23/08:02am 6.8 4.7 6.7 99 0.0 WNW 7 11 4 6 1022.7 1022.9 0.0
23/08:00am 6.7 4.6 6.6 99 0.0 WNW 7 11 4 6 1022.7 1022.9 0.0
23/07:49am 6.7 4.6 6.6 99 0.0 WNW 7 9 4 5 1022.6 1022.8 0.0
23/07:30am 6.5 5.3 6.4 99 0.0 NNW 2 11 1 6 1022.7 1022.9 0.0
23/07:07am 6.2 4.5 6.1 99 0.0 N 4 9 2 5 1022.4 1022.6 0.0
23/07:00am 6.2 4.0 6.1 99 0.0 N 7 9 4 5 1022.4 1022.6 0.0
23/06:30am 6.1 4.4 6.0 99 0.0 N 4 9 2 5 1022.3 1022.5 0.0
23/06:00am 6.0 3.7 5.9 99 0.0 N 7 9 4 5 1022.0 1022.2 0.0
23/05:35am 6.0 3.9 5.9 99 0.0 NNW 6 9 3 5 1021.8 1021.9 0.0
23/05:33am 6.0 4.3 5.9 99 0.0 NNW 4 9 2 5 1021.8 1021.9 0.0
23/05:30am 6.0 4.7 5.9 99 0.0 N 2 9 1 5 1021.8 1021.9 0.0
23/05:00am 6.1 4.0 6.0 99 0.0 NNE 6 11 3 6 1021.5 1021.7 0.0
23/04:51am 6.0 5.1 5.9 99 0.0 CALM 0 0 0 0 1021.5 1021.7 0.0
23/04:30am 5.9 4.9 5.8 99 0.0 CALM 0 0 0 0 1021.5 1021.7 0.0
23/04:00am 5.7 4.3 5.6 99 0.0 NNE 2 7 1 4 1021.5 1021.7 0.0
23/03:30am 5.5 4.5 5.4 99 0.0 CALM 0 0 0 0 1021.7 1021.8 0.0
23/03:00am 4.8 3.2 4.7 99 0.0 NNE 2 7 1 4 1021.8 1021.9 0.0
23/02:30am 4.3 3.0 4.2 99 0.0 CALM 0 0 0 0 1022.1 1022.3 0.0
23/02:11am 3.5 2.1 3.4 99 0.0 CALM 0 0 0 0 1022.3 1022.5 0.0
23/02:00am 2.8 1.2 2.7 99 0.0 CALM 0 0 0 0 1022.5 1022.7 0.0
23/01:30am 3.8 1.1 3.7 99 0.0 NNE 7 7 4 4 1022.6 1022.8 0.0
23/01:00am 3.6 1.8 3.5 99 0.0 NNE 2 6 1 3 1022.9 1023.1 0.0
23/12:36am 4.8 2.3 4.7 99 0.0 NNE 7 7 4 4 1022.9 1023.1 0.0
23/12:30am 4.4 1.8 4.3 99 0.0 NNE 7 7 4 4 1023.0 1023.2 0.0
23/12:15am 3.8 1.3 3.7 99 0.0 NNE 6 7 3 4 1023.2 1023.4 0.0
23/12:00am 5.3 3.5 5.2 99 0.0 NNE 4 7 2 4 1023.2 1023.4 0.0
 
Date/Time
EST
Temp
°C
App
Temp
°C
Dew
Point
°C
Rel
Hum
%
Delta-T
°C
Wind Press
QNH
hPa
Press
MSL
hPa
Rain since
9am
mm
Dir  Spd
km/h
Gust
km/h
Spd
kts
Gust
kts
22/11:30pm 4.7 3.4 4.1 96 0.3 CALM 0 0 0 0 1023.4 1023.7 0.0
22/11:00pm 6.1 4.9 4.7 91 0.6 CALM 0 0 0 0 1023.4 1023.7 0.0
22/10:30pm 7.6 5.0 6.1 90 0.7 NNE 9 11 5 6 1023.4 1023.7 0.0
22/10:00pm 7.9 4.9 6.0 88 0.9 NNE 11 15 6 8 1023.6 1023.8 0.0
22/09:30pm 8.4 4.7 6.2 86 1.0 NNE 15 17 8 9 1023.4 1023.7 0.0
22/09:00pm 8.7 5.0 6.2 84 1.2 NNE 15 17 8 9 1023.6 1023.8 0.0
22/08:30pm 9.1 4.9 5.8 80 1.6 NNE 17 22 9 12 1023.4 1023.7 0.0
22/08:00pm 10.3 6.3 6.6 78 1.8 N 17 24 9 13 1023.2 1023.4 0.0
22/07:30pm 10.5 6.5 6.5 76 1.9 N 17 22 9 12 1022.8 1023.0 0.0
22/07:00pm 10.6 6.9 6.2 74 2.1 N 15 19 8 10 1022.7 1022.9 0.0
22/06:30pm 11.2 7.4 5.7 69 2.6 N 15 20 8 11 1022.6 1022.8 0.0
22/06:00pm 11.8 8.0 5.7 66 2.9 N 15 20 8 11 1022.3 1022.5 0.0
22/05:30pm 13.3 7.4 5.9 61 3.6 N 26 33 14 18 1022.0 1022.2 0.0
22/05:00pm 14.4 9.8 6.3 58 4.0 NNW 20 30 11 16 1022.0 1022.2 0.0
22/04:30pm 15.3 9.8 6.1 54 4.6 NNW 24 30 13 16 1021.9 1022.1 0.0
22/04:00pm 15.7 10.1 5.6 51 5.0 N 24 30 13 16 1021.5 1021.7 0.0
22/03:30pm 16.1 10.8 5.1 48 5.4 NW 22 28 12 15 1021.5 1021.7 0.0
22/03:00pm 16.4 12.3 6.2 51 5.1 NNW 17 24 9 13 1021.7 1021.8 0.0
22/02:30pm 16.2 11.9 5.2 48 5.4 NNW 17 28 9 15 1022.0 1022.2 0.0
22/02:00pm 16.4 12.7 4.4 45 5.8 WNW 13 20 7 11 1022.2 1022.4 0.0
22/01:30pm 16.3 12.7 5.0 47 5.5 NW 13 24 7 13 1022.7 1022.9 0.0
22/01:00pm 15.2 11.5 4.3 48 5.2 NNW 13 19 7 10 1022.9 1023.1 0.0
22/12:30pm 14.5 10.5 3.0 46 5.3 W 13 19 7 10 1023.2 1023.4 0.0
22/12:00pm 14.0 10.8 3.2 48 5.0 NW 9 17 5 9 1023.7 1023.9 0.0
22/11:30am 13.5 9.4 4.1 53 4.4 NW 15 20 8 11 1024.1 1024.3 0.0
22/11:00am 12.6 7.9 3.0 52 4.4 NW 17 24 9 13 1024.5 1024.7 0.0
22/10:30am 12.4 8.3 4.4 58 3.8 WNW 15 19 8 10 1024.6 1024.8 0.0
22/10:00am 11.4 8.4 4.2 61 3.3 WNW 9 19 5 10 1024.8 1025.1 0.0
22/09:30am 10.3 6.4 3.6 63 3.0 W 13 17 7 9 1024.8 1025.1 0.0
22/09:00am 8.3 5.6 2.8 68 2.4 NW 6 9 3 5 1024.8 1025.1 0.0
22/08:30am 6.9 4.5 2.2 72 2.0 NNW 4 9 2 5 1024.7 1024.9 0.0
22/08:00am 5.2 3.5 1.9 79 1.4 CALM 0 6 0 3 1024.6 1024.8 0.0
22/07:30am 3.6 1.4 1.2 84 1.0 NNE 2 7 1 4 1024.5 1024.7 0.0
22/07:00am 1.9 -0.3 0.9 93 0.4 NNE 2 7 1 4 1024.4 1024.6 0.0
22/06:30am -0.6 -3.9 -0.9 98 0.1 NNW 6 6 3 3 1024.0 1024.2 0.0
22/06:00am -1.6 -5.2 -1.9 98 0.0 SE 7 7 4 4 1023.6 1023.8 0.0
22/05:30am -1.0 -3.2 -1.3 98 0.1 CALM 0 0 0 0 1023.2 1023.4 0.0
22/05:00am -1.2 -4.8 -1.8 96 0.2 N 7 9 4 5 1023.0 1023.2 0.0
22/04:30am -1.1 -4.7 -1.8 95 0.2 E 7 7 4 4 1022.9 1023.1 0.0
22/04:00am 0.0 -3.4 -0.6 96 0.2 E 7 11 4 6 1023.0 1023.2 0.0
22/03:30am -0.3 -2.4 -0.7 97 0.1 CALM 0 7 0 4 1023.1 1023.3 0.0
22/03:00am -0.4 -2.5 -1.1 95 0.2 CALM 0 0 0 0 1023.1 1023.3 0.0
22/02:30am -0.1 -3.4 -1.4 91 0.5 E 6 11 3 6 1023.3 1023.6 0.0
22/02:00am 1.2 -1.2 0.0 92 0.5 N 2 7 1 4 1023.7 1023.9 0.0
22/01:30am -0.1 -2.6 -1.1 93 0.4 N 2 7 1 4 1024.1 1024.3 0.0
22/01:00am -0.3 -2.6 -2.0 88 0.6 CALM 0 0 0 0 1024.4 1024.6 0.0
22/12:30am 0.5 -2.5 -1.6 86 0.8 N 4 7 2 4 1024.5 1024.7 0.0
22/12:00am 0.8 -2.8 -2.1 81 1.1 NNW 7 9 4 5 1024.6 1024.8 0.0
 
Date/Time
EST
Temp
°C
App
Temp
°C
Dew
Point
°C
Rel
Hum
%
Delta-T
°C
Wind Press
QNH
hPa
Press
MSL
hPa
Rain since
9am
mm
Dir  Spd
km/h
Gust
km/h
Spd
kts
Gust
kts
21/11:30pm 0.6 -2.7 -1.5 86 0.8 ESE 6 7 3 4 1024.5 1024.7 0.0
21/11:00pm 2.3 0.2 -0.6 81 1.1 CALM 0 0 0 0 1024.3 1024.5 0.0
21/10:30pm 3.0 -0.7 -0.3 79 1.3 NE 9 11 5 6 1024.4 1024.6 0.0
21/10:00pm 2.4 -1.1 -1.0 78 1.3 NNW 7 13 4 7 1024.2 1024.4 0.0
21/09:30pm 3.8 1.8 -0.2 75 1.6 CALM 0 2 0 1 1024.0 1024.2 0.0
21/09:00pm 1.7 -2.3 -2.1 76 1.4 SE 9 11 5 6 1023.9 1024.1 0.0
21/08:30pm 2.6 -1.3 -1.2 76 1.4 SE 9 11 5 6 1023.9 1024.1 0.0
21/08:00pm 4.5 2.4 -0.9 68 2.1 CALM 0 0 0 0 1022.7 1022.9 0.0
21/07:30pm 5.2 1.8 -1.7 61 2.6 SE 6 7 3 4 1022.4 1022.6 0.0
21/07:00pm 8.2 4.0 -1.1 52 3.7 SW 11 15 6 8 1021.7 1021.8 0.0
21/06:30pm 9.0 4.4 -1.1 49 4.1 SSW 13 17 7 9 1021.2 1021.4 0.0
21/06:00pm 10.3 5.7 -0.8 46 4.5 S 13 17 7 9 1020.7 1020.9 0.0
21/05:30pm 10.9 6.7 -1.2 43 4.9 SSE 11 17 6 9 1020.4 1020.6 0.0
21/05:00pm 12.4 7.6 -2.2 36 5.9 SSE 13 19 7 10 1019.9 1020.0 0.0
21/04:30pm 12.4 6.3 -4.2 31 6.4 S 19 28 10 15 1019.7 1019.9 0.0
21/04:00pm 13.2 8.2 -1.2 37 6.0 S 15 20 8 11 1019.6 1019.8 0.0
21/03:30pm 12.9 6.7 -3.0 33 6.4 SSE 20 30 11 16 1019.5 1019.7 0.0
21/03:00pm 12.3 5.5 -2.0 37 5.8 S 24 37 13 20 1019.5 1019.7 0.0
21/02:30pm 11.7 5.2 -2.5 37 5.7 S 22 33 12 18 1019.4 1019.6 0.0
21/02:00pm 13.1 5.8 -0.2 40 5.7 SSW 28 37 15 20 1019.3 1019.5 0.0
21/01:30pm 12.6 4.5 -0.6 40 5.6 S 32 44 17 24 1019.3 1019.5 0.0
21/01:00pm 12.4 5.1 0.2 43 5.2 S 28 46 15 25 1019.1 1019.3 0.0
21/12:30pm 11.9 3.7 0.1 44 5.0 S 33 54 18 29 1019.1 1019.3 0.0
21/12:00pm 11.4 2.7 -0.7 43 5.0 S 35 54 19 29 1018.8 1018.9 0.0
21/11:58am 11.7 3.4 -0.1 44 5.0 S 33 54 18 29 1018.8 1018.9 0.0
21/11:30am 11.0 2.5 1.0 50 4.3 SSW 35 48 19 26 1018.8 1018.9 0.0
21/11:00am 9.6 1.0 0.2 52 3.9 S 35 52 19 28 1018.9 1019.1 0.0
21/10:53am 9.1 0.5 0.0 53 3.8 SSW 35 52 19 28 1019.0 1019.2 0.0
21/10:46am 9.5 0.8 1.7 58 3.4 SSW 37 52 20 28 1019.0 1019.2 0.0
21/10:30am 8.9 1.6 -0.1 53 3.7 SSW 28 41 15 22 1018.8 1018.9 0.0
21/10:00am 8.7 0.1 0.2 55 3.5 SSW 35 54 19 29 1018.5 1018.6 0.0
21/09:57am 9.1 0.6 0.6 55 3.6 SSW 35 54 19 29 1018.4 1018.5 0.0
21/09:42am 8.2 3.4 0.2 57 3.3 SSW 15 39 8 21 1018.4 1018.5 0.0
21/09:30am 7.7 4.5 -0.3 57 3.2 W 6 11 3 6 1018.3 1018.4 0.0
21/09:00am 6.7 3.3 -0.7 59 2.9 WSW 7 11 4 6 1018.3 1018.4 2.2
21/08:30am 5.8 2.7 0.0 66 2.3 WNW 6 9 3 5 1017.8 1018.0 2.2
21/08:00am 4.3 1.0 -0.1 73 1.7 NNW 7 9 4 5 1017.5 1017.7 2.2
21/07:30am 2.8 0.7 -0.5 79 1.3 CALM 0 0 0 0 1016.9 1017.0 2.2
21/07:00am 1.0 -1.1 -1.1 86 0.8 CALM 0 0 0 0 1016.4 1016.5 2.2
21/06:30am -0.4 -4.4 -2.3 87 0.7 NE 9 11 5 6 1015.7 1015.8 2.2
21/06:00am -1.0 -5.0 -2.0 93 0.3 ENE 9 13 5 7 1015.2 1015.3 2.2
21/05:30am -1.5 -6.0 -3.2 88 0.5 ENE 11 13 6 7 1014.9 1015.0 2.2
21/05:00am 0.0 -4.4 -2.1 86 0.7 NE 11 11 6 6 1013.9 1014.0 2.2
21/04:30am 0.0 -2.7 -2.1 86 0.7 N 2 7 1 4 1013.7 1013.8 2.2
21/04:00am 1.0 -2.8 -1.1 86 0.8 N 9 13 5 7 1013.5 1013.6 2.2
21/03:30am 1.2 -2.7 -1.4 83 0.9 ENE 9 11 5 6 1013.3 1013.4 2.2
21/03:00am 1.3 -3.4 -1.8 80 1.1 NW 13 17 7 9 1013.2 1013.3 2.2
21/02:30am 2.1 -2.9 -1.0 80 1.2 NW 15 22 8 12 1013.0 1013.1 2.2
21/02:00am 2.7 -0.2 -0.9 77 1.4 NNE 4 9 2 5 1013.3 1013.4 2.2
21/01:30am 3.8 -1.4 -0.2 75 1.6 NW 17 24 9 13 1013.2 1013.3 2.2
21/01:00am 4.7 -0.9 -0.1 71 1.9 WNW 19 30 10 16 1013.5 1013.6 2.2
21/12:30am 4.4 -1.2 0.9 78 1.4 NW 20 28 11 15 1013.3 1013.4 2.2
21/12:00am 4.8 -0.7 1.7 80 1.3 WNW 20 28 11 15 1013.6 1013.7 2.2
 
Date/Time
EST
Temp
°C
App
Temp
°C
Dew
Point
°C
Rel
Hum
%
Delta-T
°C
Wind Press
QNH
hPa
Press
MSL
hPa
Rain since
9am
mm
Dir  Spd
km/h
Gust
km/h
Spd
kts
Gust
kts
20/11:30pm 5.8 0.2 1.5 74 1.8 WNW 20 26 11 14 1013.8 1013.9 2.2
20/11:00pm 4.6 0.4 3.6 93 0.4 NW 15 19 8 10 1013.8 1013.9 2.2
20/10:30pm 5.1 1.0 4.1 93 0.4 NW 15 19 8 10 1013.9 1014.0 2.2
20/10:00pm 5.3 0.9 4.6 95 0.3 NNW 17 20 9 11 1014.1 1014.2 2.2
20/09:30pm 5.1 0.2 4.1 93 0.4 NNW 19 24 10 13 1013.9 1014.0 2.2
20/09:00pm 5.3 -0.6 4.1 92 0.5 NNW 24 33 13 18 1013.8 1013.9 2.2
20/08:47pm 5.3 0.3 3.5 88 0.8 NW 19 28 10 15 1014.0 1014.1 2.0
20/08:41pm 5.6 0.9 3.1 84 1.1 NW 17 26 9 14 1014.0 1014.1 2.0
20/08:30pm 5.8 0.2 3.5 85 1.0 WNW 22 33 12 18 1014.4 1014.4 2.0
20/08:28pm 5.9 0.0 3.9 87 0.9 NW 24 33 13 18 1014.4 1014.4 1.8
20/08:18pm 6.2 2.1 4.4 88 0.8 WNW 15 24 8 13 1014.3 1014.3 1.0
20/08:00pm 6.1 1.6 4.1 87 0.9 NW 17 20 9 11 1013.8 1013.9 0.4
20/07:30pm 5.3 1.4 3.3 87 0.9 N 13 17 7 9 1013.5 1013.6 0.4
20/07:00pm 5.4 2.5 2.6 82 1.2 NW 7 9 4 5 1013.3 1013.4 0.4
20/06:30pm 5.7 0.5 2.4 79 1.4 WNW 19 28 10 15 1013.1 1013.2 0.4
20/06:00pm 6.9 0.4 2.4 73 1.9 WNW 26 39 14 21 1012.8 1012.8 0.4
20/05:30pm 7.1 1.9 2.6 73 1.9 NW 19 24 10 13 1012.8 1012.8 0.4
20/05:00pm 7.9 3.1 2.8 70 2.2 NNW 17 22 9 12 1012.8 1012.8 0.4
20/04:30pm 7.2 1.4 2.1 70 2.2 NW 22 33 12 18 1012.6 1012.6 0.4
20/04:00pm 7.2 1.0 2.3 71 2.1 NW 24 35 13 19 1012.1 1012.2 0.4
20/03:30pm 7.4 1.2 2.1 69 2.3 WNW 24 35 13 19 1012.6 1012.6 0.4
20/03:00pm 7.7 2.5 3.6 75 1.8 W 20 32 11 17 1012.7 1012.7 0.4
20/02:30pm 8.2 0.8 5.0 80 1.5 W 33 56 18 30 1012.6 1012.6 0.2
20/02:16pm 9.4 2.1 7.0 85 1.2 WNW 35 54 19 29 1012.1 1012.2 0.0
20/02:00pm 10.1 2.5 5.9 75 2.0 WNW 35 50 19 27 1011.6 1011.7 0.0
20/01:30pm 12.4 5.1 4.4 58 3.8 WNW 32 50 17 27 1011.2 1011.2 0.0
20/01:25pm 13.0 5.7 4.7 57 3.9 WNW 32 50 17 27 1011.2 1011.2 0.0
20/01:00pm 13.0 5.1 4.4 56 4.1 WNW 35 50 19 27 1011.3 1011.3 0.0
20/12:30pm 13.8 5.5 4.1 52 4.6 NW 37 56 20 30 1011.7 1011.8 0.0
20/12:09pm 14.7 6.9 4.7 51 4.8 WNW 35 52 19 28 1011.8 1011.9 0.0
20/12:00pm 15.5 7.7 4.8 49 5.2 WNW 35 56 19 30 1012.0 1012.1 0.0
20/11:51am 16.1 8.4 5.4 49 5.3 WNW 35 56 19 30 1012.2 1012.3 0.0
20/11:30am 15.5 7.5 3.6 45 5.6 WNW 35 48 19 26 1012.0 1012.1 0.0
20/11:04am 15.9 8.6 4.6 47 5.5 NW 32 52 17 28 1012.2 1012.3 0.0
20/11:00am 16.0 8.7 4.7 47 5.5 WNW 32 48 17 26 1012.2 1012.3 0.0
20/10:30am 15.9 7.3 4.6 47 5.5 WNW 39 59 21 32 1012.6 1012.6 0.0
20/10:09am 15.9 7.2 5.8 51 5.0 NW 41 61 22 33 1012.7 1012.7 0.0
20/10:07am 15.5 6.5 4.6 48 5.3 NW 41 54 22 29 1012.7 1012.7 0.0
20/10:00am 15.2 6.4 5.4 52 4.8 NW 41 54 22 29 1012.6 1012.6 0.0
20/09:30am 14.6 6.9 5.4 54 4.5 NNW 35 48 19 26 1012.8 1012.8 0.0

Latest Capital City Observations: Canberra | Sydney | Melbourne | Brisbane | Adelaide | Perth | Hobart | Darwin

Other formats

Comma delimited format used in spreadsheet applications
http://www.bom.gov.au/fwo/IDN60903/IDN60903.94926.axf

JavaScript Object Notation format (JSON) in row-major order
http://www.bom.gov.au/fwo/IDN60903/IDN60903.94926.json

Data quality

Most of these data are generated automatically and are frequently updated. Quality checks on data are not normally performed. It is possible for incorrect values to appear. Refer to information at About Latest Weather Observations and please check the disclaimer before using these data.